Time;durP1;ratioP1;P1;durP2;ratioP2;P2;SDS_P1;SDS_P2;PMS_P1;PMS_P2;Temp;Humidity;BMP_temperature;BMP_pressure;BME280_temperature;BME280_humidity;BME280_pressure;Samples;Min_cycle;Max_cycle;Signal;HPM_P1;HPM_P2
2023/07/30 00:01:22;;;;;;;18.38;7.40;;;16.80;99.90;;;;;;5098703;28;20052;-59
2023/07/30 00:03:47;;;;;;;16.80;6.22;;;16.80;99.90;;;;;;5093846;28;20044;-59
2023/07/30 00:06:13;;;;;;;21.33;7.05;;;16.70;99.90;;;;;;5096349;28;20368;-59
2023/07/30 00:08:38;;;;;;;22.75;6.68;;;16.80;99.90;;;;;;5099324;28;20044;-59
2023/07/30 00:11:04;;;;;;;21.30;6.55;;;16.80;99.90;;;;;;5093437;28;20106;-59
2023/07/30 00:13:30;;;;;;;18.60;6.43;;;16.70;99.90;;;;;;5094340;28;20074;-59
2023/07/30 00:15:55;;;;;;;19.25;6.00;;;16.70;99.90;;;;;;5090884;28;20051;-59
2023/07/30 00:18:21;;;;;;;21.65;6.22;;;16.70;99.90;;;;;;5085599;28;20064;-59
2023/07/30 00:20:47;;;;;;;22.75;6.80;;;16.70;99.90;;;;;;5071060;28;20195;-59
2023/07/30 00:23:13;;;;;;;19.80;6.38;;;16.70;99.90;;;;;;5087368;28;20048;-59
2023/07/30 00:25:38;;;;;;;20.00;5.97;;;16.70;99.90;;;;;;5098682;28;20421;-59
2023/07/30 00:28:04;;;;;;;20.70;7.20;;;16.70;99.90;;;;;;5100041;28;20199;-59
2023/07/30 00:30:29;;;;;;;20.02;6.55;;;16.70;99.90;;;;;;5098308;28;20038;-59
2023/07/30 00:32:55;;;;;;;14.35;5.63;;;16.60;99.90;;;;;;5097002;28;20047;-60
2023/07/30 00:35:22;;;;;;;21.77;7.28;;;16.60;99.90;;;;;;5086500;28;20040;-59
2023/07/30 00:37:47;;;;;;;18.13;6.28;;;16.50;99.90;;;;;;5087560;28;20184;-59
2023/07/30 00:40:13;;;;;;;15.20;6.25;;;16.50;99.90;;;;;;5088759;28;20224;-59
2023/07/30 00:42:39;;;;;;;17.85;5.57;;;16.60;99.90;;;;;;5090475;28;20036;-59
2023/07/30 00:45:05;;;;;;;21.38;7.25;;;16.50;99.90;;;;;;5099836;28;20067;-59
2023/07/30 00:47:31;;;;;;;19.20;6.90;;;16.60;99.90;;;;;;5097713;28;20048;-59
2023/07/30 00:49:57;;;;;;;22.10;6.95;;;16.60;99.90;;;;;;5098408;28;20044;-59
2023/07/30 00:52:25;;;;;;;18.48;6.53;;;16.50;99.90;;;;;;5097475;28;20036;-59
2023/07/30 00:54:53;;;;;;;21.75;5.80;;;16.60;99.90;;;;;;5099373;28;20051;-59
2023/07/30 00:57:19;;;;;;;17.90;5.63;;;16.50;99.90;;;;;;5086618;28;20040;-59
2023/07/30 00:59:47;;;;;;;21.08;7.00;;;16.60;99.90;;;;;;5078336;28;20531;-59
2023/07/30 01:02:13;;;;;;;19.20;5.97;;;16.50;99.90;;;;;;5086936;28;20361;-59
2023/07/30 01:04:40;;;;;;;17.67;6.93;;;16.60;99.90;;;;;;5094490;28;20047;-59
2023/07/30 01:07:06;;;;;;;24.27;6.63;;;16.50;99.90;;;;;;5090566;28;20044;-59
2023/07/30 01:09:33;;;;;;;21.95;6.32;;;16.60;99.90;;;;;;5086256;28;20035;-59
2023/07/30 01:11:59;;;;;;;15.63;6.18;;;16.60;99.90;;;;;;5081568;28;20064;-59
2023/07/30 01:14:26;;;;;;;16.92;5.93;;;16.50;99.90;;;;;;5077266;28;20066;-59
2023/07/30 01:16:52;;;;;;;20.67;6.90;;;16.50;99.90;;;;;;5078430;28;20066;-59
2023/07/30 01:19:18;;;;;;;16.05;6.28;;;16.60;99.90;;;;;;5078236;28;20051;-59
2023/07/30 01:21:44;;;;;;;17.25;5.65;;;16.60;99.90;;;;;;5082443;28;20037;-58
2023/07/30 01:24:10;;;;;;;19.20;6.88;;;16.60;99.90;;;;;;5080764;28;20063;-59
2023/07/30 01:26:46;;;;;;;19.95;6.55;;;16.60;99.90;;;;;;5070264;28;20036;-59
2023/07/30 01:29:18;;;;;;;22.58;6.68;;;16.50;99.90;;;;;;5088040;28;20036;-59
2023/07/30 01:31:45;;;;;;;20.63;6.60;;;16.40;99.90;;;;;;5076974;28;20098;-58
2023/07/30 01:34:12;;;;;;;21.73;6.38;;;16.40;99.90;;;;;;5078097;28;20228;-59
2023/07/30 01:36:38;;;;;;;22.50;6.78;;;16.40;99.90;;;;;;5078690;28;20102;-59
2023/07/30 01:39:05;;;;;;;21.40;6.75;;;16.40;99.90;;;;;;5077123;28;20044;-59
2023/07/30 01:41:31;;;;;;;20.80;6.68;;;16.50;99.90;;;;;;5078701;28;20041;-59
2023/07/30 01:43:57;;;;;;;19.45;6.60;;;16.50;99.90;;;;;;5076653;28;20055;-60
2023/07/30 01:46:23;;;;;;;20.80;6.93;;;16.40;99.90;;;;;;5078320;28;20076;-59
2023/07/30 01:48:48;;;;;;;19.33;6.13;;;16.40;99.90;;;;;;5076364;28;20052;-59
2023/07/30 01:51:14;;;;;;;19.08;6.97;;;16.30;99.90;;;;;;5077795;28;20048;-59
2023/07/30 01:53:39;;;;;;;15.50;6.68;;;16.40;99.90;;;;;;5078185;28;20056;-59
2023/07/30 01:56:05;;;;;;;19.23;6.47;;;16.40;99.90;;;;;;5060180;28;20051;-59
2023/07/30 01:58:31;;;;;;;20.45;7.25;;;16.50;99.90;;;;;;5098514;28;20061;-59
2023/07/30 02:00:56;;;;;;;20.92;7.07;;;16.40;99.90;;;;;;5096189;28;20044;-59
2023/07/30 02:03:22;;;;;;;20.88;6.13;;;16.50;99.90;;;;;;5098486;28;20052;-59
2023/07/30 02:05:48;;;;;;;17.52;6.35;;;16.50;99.90;;;;;;5096867;28;20102;-60
2023/07/30 02:08:15;;;;;;;17.17;5.72;;;16.50;99.90;;;;;;5098112;28;20040;-59
2023/07/30 02:10:41;;;;;;;16.17;6.13;;;16.50;99.90;;;;;;5097280;28;20036;-59
2023/07/30 02:13:07;;;;;;;20.35;6.43;;;16.50;99.90;;;;;;5096705;28;20110;-59
2023/07/30 02:15:32;;;;;;;18.33;5.15;;;16.40;99.90;;;;;;5080288;28;20048;-58
2023/07/30 02:17:58;;;;;;;16.80;5.75;;;16.60;99.90;;;;;;5096425;28;20036;-59
2023/07/30 02:20:24;;;;;;;17.80;6.53;;;16.60;99.90;;;;;;5098347;28;20115;-59
2023/07/30 02:22:50;;;;;;;20.33;6.03;;;16.60;99.90;;;;;;5096703;28;20051;-59
2023/07/30 02:25:16;;;;;;;20.75;5.95;;;16.60;99.90;;;;;;5079110;28;20055;-59
2023/07/30 02:27:41;;;;;;;18.40;6.45;;;16.50;99.90;;;;;;5097629;28;20074;-60
2023/07/30 02:30:07;;;;;;;16.25;5.82;;;16.60;99.90;;;;;;5097227;28;20033;-57
2023/07/30 02:32:33;;;;;;;21.35;6.72;;;16.50;99.90;;;;;;5098529;28;20063;-59
2023/07/30 02:34:58;;;;;;;22.80;5.78;;;16.60;99.90;;;;;;5096437;28;20040;-58
2023/07/30 02:37:24;;;;;;;23.55;5.30;;;16.50;99.90;;;;;;5098632;28;20036;-59
2023/07/30 02:39:50;;;;;;;21.35;6.63;;;16.60;99.90;;;;;;5096312;28;20048;-59
2023/07/30 02:42:15;;;;;;;19.65;6.18;;;16.50;99.90;;;;;;5097779;28;20040;-59
2023/07/30 02:44:41;;;;;;;14.68;5.15;;;16.50;99.90;;;;;;5097274;28;20051;-59
2023/07/30 02:47:06;;;;;;;19.05;5.85;;;16.40;99.90;;;;;;5096954;28;20036;-59
2023/07/30 02:49:32;;;;;;;23.00;7.00;;;16.40;99.90;;;;;;5098062;28;20127;-59
2023/07/30 02:51:58;;;;;;;19.90;5.30;;;16.40;99.90;;;;;;5096047;28;20040;-59
2023/07/30 02:54:23;;;;;;;18.30;5.57;;;16.40;99.90;;;;;;5098215;28;20059;-60
2023/07/30 02:56:49;;;;;;;17.05;5.18;;;16.40;99.90;;;;;;5088607;28;20062;-60
2023/07/30 02:59:15;;;;;;;20.50;6.30;;;16.40;99.90;;;;;;5077587;28;20032;-59
2023/07/30 03:01:40;;;;;;;27.27;6.43;;;16.40;99.90;;;;;;5076394;28;20041;-58
2023/07/30 03:04:06;;;;;;;16.90;5.20;;;16.30;99.90;;;;;;5076998;28;20097;-59
2023/07/30 03:06:32;;;;;;;19.10;5.47;;;16.30;99.90;;;;;;5077724;28;20037;-60
2023/07/30 03:08:58;;;;;;;23.33;6.45;;;16.20;99.90;;;;;;5075704;28;20036;-59
2023/07/30 03:11:23;;;;;;;18.98;5.20;;;16.10;99.90;;;;;;5077801;28;20090;-59
2023/07/30 03:13:49;;;;;;;21.58;6.18;;;16.10;99.90;;;;;;5078091;28;20561;-59
2023/07/30 03:16:14;;;;;;;18.50;5.88;;;16.10;99.90;;;;;;5081193;28;20045;-60
2023/07/30 03:18:40;;;;;;;21.13;6.07;;;16.00;99.90;;;;;;5079718;28;20464;-59
2023/07/30 03:21:06;;;;;;;18.85;5.82;;;16.10;99.90;;;;;;5080456;28;20571;-59
2023/07/30 03:23:31;;;;;;;18.65;6.05;;;16.00;99.90;;;;;;5080536;28;20041;-59
2023/07/30 03:25:59;;;;;;;17.52;5.53;;;16.00;99.90;;;;;;5078981;28;20133;-59
2023/07/30 03:28:25;;;;;;;14.82;5.15;;;16.00;99.90;;;;;;5081475;28;20041;-59
2023/07/30 03:30:51;;;;;;;16.30;5.82;;;16.00;99.90;;;;;;5060788;28;20045;-59
2023/07/30 03:33:17;;;;;;;22.58;5.88;;;16.00;99.90;;;;;;5081001;28;20040;-59
2023/07/30 03:35:42;;;;;;;13.60;4.70;;;15.90;99.90;;;;;;5079208;28;20049;-59
2023/07/30 03:38:08;;;;;;;20.20;5.75;;;16.00;99.90;;;;;;5080067;28;20054;-59
2023/07/30 03:40:34;;;;;;;16.00;5.13;;;16.00;99.90;;;;;;5080117;28;20106;-59
2023/07/30 03:42:59;;;;;;;19.98;5.75;;;15.80;99.90;;;;;;5078591;28;20045;-60
2023/07/30 03:45:25;;;;;;;17.25;4.93;;;15.80;99.90;;;;;;5081214;28;20041;-59
2023/07/30 03:47:50;;;;;;;18.92;5.85;;;15.80;99.90;;;;;;5078326;28;20059;-59
2023/07/30 03:50:16;;;;;;;15.85;5.45;;;15.80;99.90;;;;;;5080830;28;20092;-59
2023/07/30 03:52:42;;;;;;;15.93;5.13;;;15.80;99.90;;;;;;5078700;28;20052;-59
2023/07/30 03:55:08;;;;;;;18.00;5.22;;;15.80;99.90;;;;;;5080294;28;20092;-59
2023/07/30 03:57:33;;;;;;;15.98;5.18;;;15.80;99.90;;;;;;5093277;28;20032;-59
2023/07/30 03:59:59;;;;;;;21.02;5.25;;;15.80;99.90;;;;;;5099752;28;20091;-59
2023/07/30 04:02:25;;;;;;;19.35;5.15;;;15.70;99.90;;;;;;5100833;28;20128;-57
2023/07/30 04:04:51;;;;;;;20.23;5.40;;;15.70;99.90;;;;;;5098513;28;20043;-59
2023/07/30 04:07:17;;;;;;;16.55;5.38;;;15.80;99.90;;;;;;5100668;28;20040;-59
2023/07/30 04:09:42;;;;;;;17.30;4.15;;;15.70;99.90;;;;;;5097977;28;20044;-60
2023/07/30 04:12:08;;;;;;;17.73;5.00;;;15.90;99.90;;;;;;5100141;28;20067;-59
2023/07/30 04:14:33;;;;;;;20.38;5.18;;;15.90;99.90;;;;;;5098859;28;20040;-59
2023/07/30 04:16:59;;;;;;;20.15;5.55;;;15.90;99.90;;;;;;5099335;28;20051;-59
2023/07/30 04:19:25;;;;;;;18.33;4.90;;;15.90;99.90;;;;;;5100231;28;20077;-59
2023/07/30 04:21:51;;;;;;;13.02;4.72;;;15.90;99.90;;;;;;5098102;28;20051;-59
2023/07/30 04:24:16;;;;;;;14.77;4.45;;;15.90;99.90;;;;;;5100267;28;20464;-59
2023/07/30 04:26:42;;;;;;;18.85;5.32;;;16.00;99.90;;;;;;5098067;28;20044;-59
2023/07/30 04:29:08;;;;;;;14.25;3.90;;;15.90;99.90;;;;;;5100127;28;20036;-59
2023/07/30 04:31:33;;;;;;;18.70;5.15;;;16.00;99.90;;;;;;5098700;28;20400;-59
2023/07/30 04:33:59;;;;;;;20.25;4.72;;;16.00;99.90;;;;;;5099716;28;20453;-59
2023/07/30 04:36:24;;;;;;;17.98;5.25;;;16.10;99.90;;;;;;5099818;28;20055;-59
2023/07/30 04:38:50;;;;;;;18.25;5.07;;;16.10;99.90;;;;;;5098572;28;20091;-59
2023/07/30 04:41:18;;;;;;;12.43;4.05;;;16.20;99.90;;;;;;5100394;28;20138;-59
2023/07/30 04:43:44;;;;;;;14.60;4.38;;;16.20;99.90;;;;;;5097737;28;20058;-59
2023/07/30 04:46:09;;;;;;;13.27;4.85;;;16.30;99.90;;;;;;5100065;28;20043;-59
2023/07/30 04:48:37;;;;;;;16.80;4.18;;;16.30;99.90;;;;;;5098065;28;20530;-59
2023/07/30 04:51:03;;;;;;;25.05;5.00;;;16.40;99.90;;;;;;5099506;28;20043;-59
2023/07/30 04:53:29;;;;;;;17.35;4.30;;;16.30;99.90;;;;;;5099092;28;20051;-59
2023/07/30 04:55:57;;;;;;;19.55;5.25;;;16.30;99.90;;;;;;5098317;28;20051;-59
2023/07/30 04:58:23;;;;;;;14.07;4.20;;;16.30;99.90;;;;;;5079463;28;20136;-59
2023/07/30 05:00:49;;;;;;;18.80;4.65;;;16.40;99.90;;;;;;5077057;28;20040;-60
2023/07/30 05:03:15;;;;;;;14.20;4.00;;;16.40;99.90;;;;;;5079135;28;20044;-59
2023/07/30 05:05:41;;;;;;;16.88;3.88;;;16.40;99.90;;;;;;5077452;28;20043;-59
2023/07/30 05:08:07;;;;;;;13.90;3.58;;;16.40;99.90;;;;;;5078489;28;20102;-59
2023/07/30 05:10:33;;;;;;;19.15;4.22;;;16.40;99.90;;;;;;5078467;28;20442;-59
2023/07/30 05:12:59;;;;;;;14.75;4.03;;;16.50;99.90;;;;;;5077479;28;20037;-59
2023/07/30 05:15:25;;;;;;;16.52;4.13;;;16.50;99.90;;;;;;5079073;28;20044;-58
2023/07/30 05:17:51;;;;;;;14.70;3.40;;;16.50;99.90;;;;;;5058949;28;20391;-59
2023/07/30 05:20:16;;;;;;;11.27;2.60;;;16.40;99.90;;;;;;5078971;28;20103;-58
2023/07/30 05:22:42;;;;;;;10.98;2.78;;;16.50;99.90;;;;;;5077057;28;20462;-58
2023/07/30 05:25:08;;;;;;;15.38;3.10;;;16.50;99.90;;;;;;5078108;28;20091;-58
2023/07/30 05:27:35;;;;;;;14.77;3.42;;;16.60;99.90;;;;;;5077602;28;20045;-58
2023/07/30 05:30:01;;;;;;;14.65;2.70;;;16.70;99.90;;;;;;5077760;28;20059;-57
2023/07/30 05:32:26;;;;;;;12.65;2.97;;;16.70;99.90;;;;;;5078590;28;20048;-58
2023/07/30 05:34:52;;;;;;;9.77;2.13;;;16.80;99.90;;;;;;5076798;28;20049;-57
2023/07/30 05:37:18;;;;;;;8.00;1.95;;;16.80;99.90;;;;;;5078087;28;20041;-59
2023/07/30 05:39:43;;;;;;;12.30;2.70;;;16.90;99.90;;;;;;5058848;28;20048;-58
2023/07/30 05:42:09;;;;;;;8.77;2.20;;;16.90;99.90;;;;;;5077839;28;20037;-59
2023/07/30 05:44:35;;;;;;;7.35;1.85;;;17.00;99.90;;;;;;5077353;28;20099;-59
2023/07/30 05:47:00;;;;;;;8.23;2.05;;;17.00;99.90;;;;;;5077304;28;20106;-59
2023/07/30 05:49:26;;;;;;;13.10;2.45;;;17.10;99.90;;;;;;5078090;28;20076;-58
2023/07/30 05:51:52;;;;;;;10.57;2.20;;;17.10;99.90;;;;;;5082119;28;20085;-59
2023/07/30 05:54:18;;;;;;;13.02;2.60;;;17.20;99.90;;;;;;5095948;28;20048;-59
2023/07/30 05:56:43;;;;;;;8.57;2.10;;;17.20;99.90;;;;;;5086400;28;20104;-59
2023/07/30 05:59:09;;;;;;;9.38;2.22;;;17.20;99.90;;;;;;5078167;28;20514;-59
2023/07/30 06:01:35;;;;;;;10.50;2.10;;;17.20;99.90;;;;;;5089832;28;20043;-58
2023/07/30 06:04:00;;;;;;;7.18;1.92;;;17.30;99.90;;;;;;5093913;28;20083;-59
2023/07/30 06:06:29;;;;;;;9.77;2.80;;;17.20;99.90;;;;;;5093894;28;20047;-59
2023/07/30 06:08:55;;;;;;;7.35;1.45;;;17.20;99.90;;;;;;5092689;28;20498;-58
2023/07/30 06:11:21;;;;;;;6.38;2.10;;;17.30;99.90;;;;;;5094616;28;20083;-59
2023/07/30 06:13:47;;;;;;;11.20;2.75;;;17.20;99.90;;;;;;5092247;28;20052;-58
2023/07/30 06:16:13;;;;;;;9.95;2.40;;;17.30;99.90;;;;;;5094582;28;20051;-59
2023/07/30 06:18:39;;;;;;;7.97;1.75;;;17.20;99.90;;;;;;5092689;28;20430;-59
2023/07/30 06:21:05;;;;;;;7.38;1.60;;;17.30;99.90;;;;;;5093272;28;20057;-59
2023/07/30 06:23:30;;;;;;;8.43;2.00;;;17.50;99.90;;;;;;5093979;28;20040;-59
2023/07/30 06:25:56;;;;;;;10.80;2.45;;;17.50;99.90;;;;;;5092209;28;20052;-59
2023/07/30 06:28:23;;;;;;;8.45;1.80;;;17.50;99.90;;;;;;5094682;28;20052;-59
2023/07/30 06:30:48;;;;;;;11.02;2.65;;;17.60;99.90;;;;;;5091969;28;20059;-59
2023/07/30 06:33:14;;;;;;;6.47;1.75;;;17.50;99.90;;;;;;5093802;28;20044;-59
2023/07/30 06:35:40;;;;;;;9.63;2.10;;;17.50;99.90;;;;;;5092693;28;20140;-59
2023/07/30 06:38:08;;;;;;;11.48;2.60;;;17.50;99.90;;;;;;5093337;28;20521;-59
2023/07/30 06:40:34;;;;;;;11.68;2.40;;;17.50;99.90;;;;;;5093866;28;20044;-58
2023/07/30 06:42:59;;;;;;;8.23;1.67;;;17.40;99.90;;;;;;5091794;28;20077;-59
2023/07/30 06:45:25;;;;;;;8.10;2.03;;;17.30;99.90;;;;;;5094482;28;20385;-58
2023/07/30 06:47:51;;;;;;;8.90;2.50;;;17.40;99.90;;;;;;5092246;28;20044;-58
2023/07/30 06:50:17;;;;;;;7.22;2.45;;;17.30;99.90;;;;;;5097872;28;20578;-58
2023/07/30 06:52:42;;;;;;;7.82;2.17;;;17.30;99.90;;;;;;5096398;28;20036;-59
2023/07/30 06:55:08;;;;;;;10.05;2.42;;;17.30;99.90;;;;;;5096700;28;20063;-59
2023/07/30 06:57:34;;;;;;;10.77;2.20;;;17.20;99.90;;;;;;5083211;28;20032;-59
2023/07/30 07:00:00;;;;;;;9.52;2.40;;;17.20;99.90;;;;;;5075911;28;20056;-59
2023/07/30 07:02:26;;;;;;;7.15;2.03;;;17.40;99.90;;;;;;5078160;28;20055;-58
2023/07/30 07:04:53;;;;;;;10.18;2.00;;;17.40;99.90;;;;;;5075154;28;20576;-59
2023/07/30 07:07:19;;;;;;;10.88;2.25;;;17.60;99.90;;;;;;5076691;28;20166;-59
2023/07/30 07:09:44;;;;;;;11.02;2.92;;;17.80;99.90;;;;;;5074817;28;20162;-58
2023/07/30 07:12:10;;;;;;;11.65;2.72;;;18.00;99.90;;;;;;5076474;28;20052;-59
2023/07/30 07:14:36;;;;;;;9.57;2.83;;;18.00;99.90;;;;;;5076223;28;20041;-58
2023/07/30 07:17:01;;;;;;;8.75;2.13;;;18.00;99.90;;;;;;5075280;28;20087;-58
2023/07/30 07:19:27;;;;;;;10.32;2.50;;;18.10;99.90;;;;;;5076346;28;20145;-58
2023/07/30 07:21:52;;;;;;;10.75;2.47;;;18.20;99.90;;;;;;5074775;28;20044;-58
2023/07/30 07:24:18;;;;;;;9.75;2.53;;;18.30;99.90;;;;;;5076962;28;20052;-58
2023/07/30 07:26:44;;;;;;;7.47;2.00;;;18.40;99.90;;;;;;5074668;28;20132;-59
2023/07/30 07:29:10;;;;;;;10.43;2.15;;;18.30;99.90;;;;;;5077107;28;20045;-58
2023/07/30 07:31:36;;;;;;;8.63;2.08;;;18.50;99.90;;;;;;5075251;28;20067;-59
2023/07/30 07:34:01;;;;;;;9.50;1.90;;;18.60;99.90;;;;;;5075656;28;20415;-59
2023/07/30 07:36:27;;;;;;;9.23;2.50;;;18.80;99.90;;;;;;5077086;28;20522;-58
2023/07/30 07:38:53;;;;;;;9.70;1.90;;;18.90;99.90;;;;;;5075264;28;20419;-59
2023/07/30 07:41:18;;;;;;;9.38;2.78;;;18.60;99.90;;;;;;5077509;28;20430;-58
2023/07/30 07:43:46;;;;;;;9.00;1.85;;;18.50;99.90;;;;;;5074395;28;20573;-59
2023/07/30 07:46:14;;;;;;;9.63;2.25;;;18.50;99.90;;;;;;5059256;28;20084;-60
2023/07/30 07:48:43;;;;;;;12.27;2.63;;;18.40;99.90;;;;;;5075161;28;20073;-60
2023/07/30 07:51:10;;;;;;;12.45;2.20;;;18.30;99.90;;;;;;5076083;28;20088;-58
2023/07/30 07:53:36;;;;;;;10.25;1.95;;;18.30;99.90;;;;;;5071943;28;20055;-60
2023/07/30 07:56:03;;;;;;;8.85;1.77;;;18.30;99.90;;;;;;5070071;28;20051;-58
2023/07/30 07:58:29;;;;;;;8.35;2.20;;;18.30;99.90;;;;;;5073208;28;20066;-58
2023/07/30 08:00:55;;;;;;;10.73;2.50;;;18.30;99.90;;;;;;5073014;28;20412;-58
2023/07/30 08:03:21;;;;;;;10.52;1.98;;;18.20;99.90;;;;;;5076015;28;20044;-59
2023/07/30 08:05:48;;;;;;;9.63;2.40;;;18.10;99.90;;;;;;5068518;28;20051;-59
2023/07/30 08:08:13;;;;;;;11.70;1.98;;;18.20;99.90;;;;;;5071744;28;20477;-58
2023/07/30 08:10:40;;;;;;;10.70;2.58;;;18.20;99.90;;;;;;5075274;28;20113;-57
2023/07/30 08:13:05;;;;;;;9.93;2.35;;;18.20;99.90;;;;;;5071575;28;20048;-58
2023/07/30 08:15:32;;;;;;;10.15;2.63;;;18.20;99.90;;;;;;5075750;28;20040;-58
2023/07/30 08:17:58;;;;;;;17.55;2.03;;;18.30;99.90;;;;;;5048028;28;20052;-58
2023/07/30 08:20:24;;;;;;;10.73;2.83;;;18.40;99.90;;;;;;5073225;28;20041;-58
2023/07/30 08:22:49;;;;;;;9.48;2.45;;;18.20;99.90;;;;;;5070100;28;20044;-57
2023/07/30 08:25:15;;;;;;;9.07;1.80;;;18.40;99.90;;;;;;5073086;28;20056;-58
2023/07/30 08:27:41;;;;;;;11.18;2.10;;;18.20;99.90;;;;;;5077070;28;20107;-58
2023/07/30 08:30:07;;;;;;;9.60;2.33;;;18.40;99.90;;;;;;5073139;28;20044;-58
2023/07/30 08:32:33;;;;;;;11.52;2.67;;;18.40;99.90;;;;;;5074135;28;20044;-59
2023/07/30 08:34:59;;;;;;;9.70;2.15;;;18.40;99.90;;;;;;5070501;28;20029;-59
2023/07/30 08:37:24;;;;;;;7.88;1.90;;;18.60;99.90;;;;;;5075092;28;20041;-58
2023/07/30 08:39:51;;;;;;;11.70;2.25;;;18.50;99.90;;;;;;5070210;28;20135;-58
2023/07/30 08:42:17;;;;;;;10.80;2.00;;;18.60;99.90;;;;;;5071616;28;20117;-58
2023/07/30 08:44:43;;;;;;;11.00;2.25;;;18.60;99.90;;;;;;5072050;28;20660;-58
2023/07/30 08:47:08;;;;;;;9.10;2.58;;;18.40;99.90;;;;;;5073030;28;20089;-58
2023/07/30 08:49:34;;;;;;;9.15;2.13;;;18.40;99.90;;;;;;5072890;28;20043;-59
2023/07/30 08:52:02;;;;;;;9.70;2.13;;;18.50;99.90;;;;;;5071203;28;20043;-58
2023/07/30 08:54:31;;;;;;;13.38;2.30;;;19.00;99.90;;;;;;5071974;28;20070;-58
2023/07/30 08:56:58;;;;;;;14.00;2.45;;;18.80;99.90;;;;;;5072565;28;20572;-59
2023/07/30 08:59:27;;;;;;;13.07;2.53;;;18.90;99.90;;;;;;5071827;28;20053;-58
2023/07/30 09:01:54;;;;;;;10.20;2.17;;;18.60;99.90;;;;;;5070129;28;20498;-58
2023/07/30 09:04:21;;;;;;;12.55;2.13;;;18.50;99.90;;;;;;5070857;28;20037;-58
2023/07/30 09:06:50;;;;;;;12.70;2.58;;;18.50;99.90;;;;;;5074183;28;20098;-58
2023/07/30 09:09:16;;;;;;;13.88;2.80;;;18.30;99.90;;;;;;5069725;28;20135;-58
2023/07/30 09:11:42;;;;;;;11.77;2.25;;;18.00;99.90;;;;;;5072707;28;20067;-59
2023/07/30 09:14:09;;;;;;;9.98;2.58;;;17.80;99.90;;;;;;5071061;28;20039;-58
2023/07/30 09:16:34;;;;;;;10.15;2.13;;;17.50;99.90;;;;;;5071592;28;20084;-58
2023/07/30 09:19:00;;;;;;;7.60;1.67;;;17.70;99.90;;;;;;5055085;28;20051;-58
2023/07/30 09:21:34;;;;;;;10.70;1.98;;;17.60;99.90;;;;;;5070800;28;20068;-59
2023/07/30 09:24:05;;;;;;;8.10;1.80;;;17.30;99.90;;;;;;5074049;28;20409;-58
2023/07/30 09:26:43;;;;;;;8.82;1.73;;;17.10;99.90;;;;;;5068832;28;20812;-58
2023/07/30 09:29:10;;;;;;;8.07;2.20;;;17.10;99.90;;;;;;5069497;28;20036;-59
2023/07/30 09:31:56;;;;;;;6.80;1.60;;;17.20;99.90;;;;;;5072463;28;20041;-58
2023/07/30 09:34:25;;;;;;;6.43;1.38;;;17.40;99.90;;;;;;5070098;28;20044;-58
2023/07/30 09:36:52;;;;;;;6.82;1.73;;;17.40;99.90;;;;;;5077169;28;20059;-58
2023/07/30 09:39:25;;;;;;;6.75;1.33;;;17.60;99.90;;;;;;5068136;28;20040;-57
2023/07/30 09:41:53;;;;;;;6.47;1.30;;;17.80;99.90;;;;;;5071193;28;20060;-58
2023/07/30 09:44:20;;;;;;;5.43;1.30;;;17.80;99.90;;;;;;5068855;28;20348;-58
2023/07/30 09:46:48;;;;;;;6.68;1.30;;;17.70;99.90;;;;;;5071776;28;20640;-58
2023/07/30 09:49:15;;;;;;;7.15;1.48;;;18.00;99.90;;;;;;5070649;28;20490;-58
2023/07/30 09:51:41;;;;;;;5.28;1.38;;;18.10;99.90;;;;;;5069091;28;20048;-58
2023/07/30 09:54:13;;;;;;;8.07;2.08;;;18.20;99.90;;;;;;5053639;28;20048;-58
2023/07/30 09:56:41;;;;;;;7.13;1.60;;;18.20;99.90;;;;;;5079941;28;20096;-58
2023/07/30 09:59:08;;;;;;;5.57;1.40;;;18.20;99.90;;;;;;5073327;28;20152;-58
2023/07/30 10:01:44;;;;;;;9.20;1.65;;;18.20;99.90;;;;;;5073363;28;20540;-58
2023/07/30 10:04:11;;;;;;;7.32;1.58;;;18.40;99.90;;;;;;5073180;28;20052;-58
2023/07/30 10:06:45;;;;;;;9.88;1.90;;;18.40;99.90;;;;;;5074479;28;20040;-58
2023/07/30 10:09:13;;;;;;;7.60;1.85;;;18.50;99.90;;;;;;5075688;28;20044;-57
2023/07/30 10:11:41;;;;;;;10.02;2.10;;;18.50;99.90;;;;;;5075335;28;20127;-58
2023/07/30 10:14:07;;;;;;;10.70;2.00;;;18.50;99.90;;;;;;5069707;28;20503;-57
2023/07/30 10:16:33;;;;;;;9.85;2.20;;;18.80;99.90;;;;;;5072642;28;20040;-58
2023/07/30 10:18:59;;;;;;;9.43;1.88;;;18.70;99.90;;;;;;5070951;28;20102;-58
2023/07/30 10:21:26;;;;;;;13.57;2.67;;;18.70;99.90;;;;;;5051660;28;20028;-57
2023/07/30 10:24:03;;;;;;;8.25;1.63;;;18.70;99.90;;;;;;5080015;28;20040;-58
2023/07/30 10:26:31;;;;;;;11.27;2.53;;;18.60;99.90;;;;;;5074305;28;20041;-58
2023/07/30 10:29:19;;;;;;;12.40;2.70;;;18.60;99.90;;;;;;5078791;28;20040;-58
2023/07/30 10:31:55;;;;;;;9.35;3.10;;;18.50;99.90;;;;;;5076061;28;20048;-57
2023/07/30 10:34:21;;;;;;;8.63;1.98;;;18.60;99.90;;;;;;5074774;28;20036;-58
2023/07/30 10:36:49;;;;;;;12.95;3.00;;;18.90;99.90;;;;;;5079142;28;20081;-58
2023/07/30 10:39:34;;;;;;;11.23;2.55;;;18.70;99.90;;;;;;5074361;28;20036;-57
2023/07/30 10:42:00;;;;;;;9.20;2.00;;;18.60;99.90;;;;;;5078505;28;20052;-58
2023/07/30 10:44:30;;;;;;;7.03;1.85;;;18.60;99.90;;;;;;5074766;28;20041;-57
2023/07/30 10:46:57;;;;;;;9.02;1.60;;;18.60;99.90;;;;;;5075645;28;20763;-57
2023/07/30 10:49:23;;;;;;;11.85;2.10;;;18.90;99.90;;;;;;5077948;28;20033;-57
2023/07/30 10:51:52;;;;;;;11.35;2.50;;;19.20;99.90;;;;;;5074550;28;20041;-57
2023/07/30 10:54:18;;;;;;;7.57;1.98;;;18.90;99.90;;;;;;5074397;28;20045;-57
2023/07/30 10:56:44;;;;;;;8.30;1.58;;;18.60;99.90;;;;;;5075172;28;20131;-57
2023/07/30 10:59:11;;;;;;;10.77;2.53;;;19.00;99.90;;;;;;5076178;28;20114;-57
2023/07/30 11:01:42;;;;;;;9.68;1.98;;;19.40;99.90;;;;;;5076508;28;20049;-57
2023/07/30 11:04:13;;;;;;;12.40;3.15;;;19.50;99.90;;;;;;5074376;28;20048;-59
2023/07/30 11:06:44;;;;;;;12.77;2.13;;;19.70;99.90;;;;;;5074545;28;20061;-57
2023/07/30 11:09:22;;;;;;;10.63;1.85;;;19.90;99.90;;;;;;5055793;28;20041;-58
2023/07/30 11:11:49;;;;;;;8.10;1.77;;;19.80;99.60;;;;;;5076679;28;20040;-57
2023/07/30 11:14:21;;;;;;;9.77;2.42;;;19.90;99.90;;;;;;5075507;28;20047;-58
2023/07/30 11:16:50;;;;;;;8.57;1.95;;;20.10;99.90;;;;;;5075160;28;20044;-57
2023/07/30 11:19:16;;;;;;;8.65;2.05;;;20.40;99.90;;;;;;5076049;28;20098;-57
2023/07/30 11:21:49;;;;;;;10.63;2.03;;;20.50;99.90;;;;;;5072466;28;20380;-58
2023/07/30 11:24:15;;;;;;;7.95;1.58;;;20.60;99.90;;;;;;5074406;28;20045;-57
2023/07/30 11:26:42;;;;;;;9.10;1.73;;;20.40;94.90;;;;;;5074353;28;20600;-58
2023/07/30 11:29:18;;;;;;;6.93;2.03;;;20.50;98.20;;;;;;5073584;28;20040;-57
2023/07/30 11:31:45;;;;;;;10.82;2.78;;;20.30;95.50;;;;;;5075107;28;20084;-58
2023/07/30 11:34:11;;;;;;;9.70;2.13;;;20.60;98.10;;;;;;5073462;28;20483;-57
2023/07/30 11:36:38;;;;;;;10.27;1.85;;;20.50;96.50;;;;;;5073800;28;20810;-58
2023/07/30 11:39:04;;;;;;;10.95;2.15;;;20.40;94.30;;;;;;5071700;28;20490;-57
2023/07/30 11:41:30;;;;;;;8.77;1.77;;;20.30;96.40;;;;;;5055271;28;20055;-55
2023/07/30 11:43:56;;;;;;;9.20;1.40;;;20.50;95.90;;;;;;5075710;28;20058;-58
2023/07/30 11:46:22;;;;;;;9.82;2.03;;;20.60;96.20;;;;;;5076587;28;20539;-58
2023/07/30 11:48:50;;;;;;;9.77;2.05;;;20.30;95.60;;;;;;5056736;28;20113;-58
2023/07/30 11:51:25;;;;;;;8.93;2.22;;;20.60;99.70;;;;;;5073993;28;20039;-58
2023/07/30 11:54:01;;;;;;;9.23;1.85;;;20.40;95.20;;;;;;5077840;28;20063;-57
2023/07/30 11:56:33;;;;;;;7.32;1.30;;;20.20;92.30;;;;;;5073920;28;20041;-57
2023/07/30 11:59:07;;;;;;;9.07;1.50;;;19.90;95.10;;;;;;5074281;28;20049;-58
2023/07/30 12:01:34;;;;;;;7.32;1.38;;;19.10;99.90;;;;;;5074826;28;20037;-59
2023/07/30 12:04:01;;;;;;;6.57;1.30;;;19.10;99.90;;;;;;5074141;28;20063;-59
2023/07/30 12:06:44;;;;;;;9.00;1.80;;;19.10;99.90;;;;;;5076796;28;20611;-58
2023/07/30 12:09:12;;;;;;;9.15;1.50;;;19.40;99.90;;;;;;5056885;28;20044;-59
2023/07/30 12:11:45;;;;;;;6.80;2.00;;;19.70;99.90;;;;;;5075914;28;20044;-59
2023/07/30 12:14:11;;;;;;;7.30;1.55;;;19.80;99.90;;;;;;5067731;28;20157;-58
2023/07/30 12:16:37;;;;;;;7.30;1.55;;;19.90;99.90;;;;;;5067986;28;20786;-59
2023/07/30 12:19:03;;;;;;;9.52;1.75;;;19.60;99.60;;;;;;5067729;28;20052;-59
2023/07/30 12:21:28;;;;;;;8.25;1.58;;;19.70;99.90;;;;;;5066437;28;20040;-58
2023/07/30 12:23:54;;;;;;;6.35;1.20;;;19.80;99.90;;;;;;5049434;28;20044;-58
2023/07/30 12:26:20;;;;;;;7.70;1.70;;;20.30;99.90;;;;;;5065405;28;20036;-58
2023/07/30 12:28:45;;;;;;;8.48;1.50;;;20.00;99.90;;;;;;5067978;28;20076;-58
2023/07/30 12:31:11;;;;;;;9.95;1.90;;;20.00;99.90;;;;;;5065836;28;20075;-58
2023/07/30 12:33:37;;;;;;;9.60;1.80;;;19.80;99.90;;;;;;5067181;28;20045;-58
2023/07/30 12:36:02;;;;;;;7.72;1.60;;;19.90;99.90;;;;;;5066554;28;20040;-58
2023/07/30 12:38:28;;;;;;;9.02;1.80;;;20.20;99.90;;;;;;5065875;28;20063;-58